sensor_id;sensor_type;location;lat;lon;timestamp;pressure;altitude;pressure_sealevel;temperature;humidity
72428;BME280;60419;48.880;18.036;2023-07-28T00:00:04;98447.41;;;21.29;43.82
72428;BME280;60419;48.880;18.036;2023-07-28T00:02:49;98454.81;;;21.28;43.76
72428;BME280;60419;48.880;18.036;2023-07-28T00:05:36;98444.91;;;20.84;44.68
72428;BME280;60419;48.880;18.036;2023-07-28T00:08:21;98461.03;;;20.02;46.82
72428;BME280;60419;48.880;18.036;2023-07-28T00:11:10;98468.56;;;19.20;49.11
72428;BME280;60419;48.880;18.036;2023-07-28T00:13:58;98469.41;;;19.24;50.18
72428;BME280;60419;48.880;18.036;2023-07-28T00:16:44;98468.06;;;19.07;50.22
72428;BME280;60419;48.880;18.036;2023-07-28T00:19:29;98458.97;;;19.37;49.53
72428;BME280;60419;48.880;18.036;2023-07-28T00:22:15;98473.44;;;19.41;49.44
72428;BME280;60419;48.880;18.036;2023-07-28T00:25:00;98466.03;;;19.89;48.37
72428;BME280;60419;48.880;18.036;2023-07-28T00:27:45;98454.88;;;20.19;48.07
72428;BME280;60419;48.880;18.036;2023-07-28T00:30:31;98454.22;;;20.48;47.42
72428;BME280;60419;48.880;18.036;2023-07-28T00:33:16;98460.09;;;20.53;47.32
72428;BME280;60419;48.880;18.036;2023-07-28T00:36:02;98458.56;;;20.56;47.23
72428;BME280;60419;48.880;18.036;2023-07-28T00:38:48;98446.88;;;20.70;47.12
72428;BME280;60419;48.880;18.036;2023-07-28T00:41:33;98452.41;;;20.88;46.61
72428;BME280;60419;48.880;18.036;2023-07-28T00:44:18;98451.56;;;20.73;46.98
72428;BME280;60419;48.880;18.036;2023-07-28T00:47:04;98444.50;;;20.68;46.73
72428;BME280;60419;48.880;18.036;2023-07-28T00:49:50;98454.91;;;20.34;47.71
72428;BME280;60419;48.880;18.036;2023-07-28T00:52:35;98453.06;;;20.49;46.44
72428;BME280;60419;48.880;18.036;2023-07-28T00:55:22;98435.94;;;20.04;47.93
72428;BME280;60419;48.880;18.036;2023-07-28T00:58:10;98434.91;;;20.23;47.66
72428;BME280;60419;48.880;18.036;2023-07-28T01:00:56;98441.63;;;20.36;47.10
72428;BME280;60419;48.880;18.036;2023-07-28T01:03:41;98436.19;;;20.50;47.04
72428;BME280;60419;48.880;18.036;2023-07-28T01:06:36;98444.78;;;20.41;47.54
72428;BME280;60419;48.880;18.036;2023-07-28T01:09:24;98440.50;;;20.48;47.53
72428;BME280;60419;48.880;18.036;2023-07-28T01:12:14;98432.94;;;20.23;47.99
72428;BME280;60419;48.880;18.036;2023-07-28T01:14:59;98438.34;;;20.09;48.60
72428;BME280;60419;48.880;18.036;2023-07-28T01:17:45;98432.97;;;19.61;50.22
72428;BME280;60419;48.880;18.036;2023-07-28T01:20:33;98426.00;;;19.26;51.50
72428;BME280;60419;48.880;18.036;2023-07-28T01:23:20;98416.09;;;19.59;51.58
72428;BME280;60419;48.880;18.036;2023-07-28T01:26:11;98414.72;;;19.86;50.65
72428;BME280;60419;48.880;18.036;2023-07-28T01:28:58;98421.69;;;19.73;51.12
72428;BME280;60419;48.880;18.036;2023-07-28T01:31:47;98418.72;;;20.03;50.19
72428;BME280;60419;48.880;18.036;2023-07-28T01:34:33;98421.38;;;19.85;50.29
72428;BME280;60419;48.880;18.036;2023-07-28T01:37:18;98421.72;;;19.76;50.30
72428;BME280;60419;48.880;18.036;2023-07-28T01:40:04;98426.94;;;20.03;49.63
72428;BME280;60419;48.880;18.036;2023-07-28T01:42:49;98427.97;;;19.77;50.29
72428;BME280;60419;48.880;18.036;2023-07-28T01:45:35;98402.94;;;19.79;49.82
72428;BME280;60419;48.880;18.036;2023-07-28T01:48:20;98406.88;;;19.81;49.94
72428;BME280;60419;48.880;18.036;2023-07-28T01:51:05;98400.94;;;19.72;50.48
72428;BME280;60419;48.880;18.036;2023-07-28T01:53:51;98407.72;;;18.93;52.58
72428;BME280;60419;48.880;18.036;2023-07-28T01:56:36;98405.03;;;18.62;53.71
72428;BME280;60419;48.880;18.036;2023-07-28T01:59:21;98395.09;;;18.47;54.03
72428;BME280;60419;48.880;18.036;2023-07-28T02:02:07;98404.28;;;18.65;53.88
72428;BME280;60419;48.880;18.036;2023-07-28T02:04:52;98418.56;;;18.18;55.56
72428;BME280;60419;48.880;18.036;2023-07-28T02:07:37;98410.00;;;17.89;56.52
72428;BME280;60419;48.880;18.036;2023-07-28T02:10:23;98405.19;;;18.09;56.02
72428;BME280;60419;48.880;18.036;2023-07-28T02:13:09;98403.75;;;18.19;55.57
72428;BME280;60419;48.880;18.036;2023-07-28T02:15:54;98411.75;;;18.35;55.29
72428;BME280;60419;48.880;18.036;2023-07-28T02:18:39;98428.97;;;18.69;54.18
72428;BME280;60419;48.880;18.036;2023-07-28T02:21:25;98437.56;;;18.37;54.80
72428;BME280;60419;48.880;18.036;2023-07-28T02:24:10;98431.19;;;18.60;54.79
72428;BME280;60419;48.880;18.036;2023-07-28T02:26:56;98410.25;;;18.71;55.12
72428;BME280;60419;48.880;18.036;2023-07-28T02:29:41;98413.13;;;19.30;53.61
72428;BME280;60419;48.880;18.036;2023-07-28T02:32:30;98412.09;;;19.49;52.82
72428;BME280;60419;48.880;18.036;2023-07-28T02:35:16;98409.69;;;19.44;53.04
72428;BME280;60419;48.880;18.036;2023-07-28T02:38:02;98422.81;;;19.65;51.44
72428;BME280;60419;48.880;18.036;2023-07-28T02:40:47;98429.56;;;19.30;52.59
72428;BME280;60419;48.880;18.036;2023-07-28T02:43:32;98432.59;;;18.80;54.04
72428;BME280;60419;48.880;18.036;2023-07-28T02:46:18;98429.34;;;18.67;54.41
72428;BME280;60419;48.880;18.036;2023-07-28T02:49:03;98422.16;;;18.89;53.43
72428;BME280;60419;48.880;18.036;2023-07-28T02:51:49;98415.00;;;19.22;53.21
72428;BME280;60419;48.880;18.036;2023-07-28T02:54:34;98418.47;;;19.60;52.88
72428;BME280;60419;48.880;18.036;2023-07-28T02:57:19;98418.44;;;19.57;52.51
72428;BME280;60419;48.880;18.036;2023-07-28T03:00:05;98425.91;;;19.60;52.16
72428;BME280;60419;48.880;18.036;2023-07-28T03:02:52;98430.34;;;19.79;52.16
72428;BME280;60419;48.880;18.036;2023-07-28T03:05:39;98428.25;;;19.61;51.93
72428;BME280;60419;48.880;18.036;2023-07-28T03:08:24;98433.44;;;19.73;52.33
72428;BME280;60419;48.880;18.036;2023-07-28T03:11:10;98435.19;;;19.48;53.14
72428;BME280;60419;48.880;18.036;2023-07-28T03:13:55;98423.03;;;19.01;54.73
72428;BME280;60419;48.880;18.036;2023-07-28T03:16:41;98407.97;;;19.21;54.05
72428;BME280;60419;48.880;18.036;2023-07-28T03:19:27;98413.50;;;19.80;52.70
72428;BME280;60419;48.880;18.036;2023-07-28T03:22:12;98419.03;;;19.84;52.34
72428;BME280;60419;48.880;18.036;2023-07-28T03:24:57;98419.44;;;19.89;52.13
72428;BME280;60419;48.880;18.036;2023-07-28T03:27:43;98424.16;;;19.89;51.32
72428;BME280;60419;48.880;18.036;2023-07-28T03:30:28;98430.00;;;19.87;51.38
72428;BME280;60419;48.880;18.036;2023-07-28T03:33:13;98440.97;;;19.87;51.85
72428;BME280;60419;48.880;18.036;2023-07-28T03:35:59;98444.75;;;19.68;52.22
72428;BME280;60419;48.880;18.036;2023-07-28T03:38:44;98438.53;;;19.75;51.87
72428;BME280;60419;48.880;18.036;2023-07-28T03:41:30;98438.81;;;19.59;52.75
72428;BME280;60419;48.880;18.036;2023-07-28T03:44:15;98442.56;;;19.92;52.07
72428;BME280;60419;48.880;18.036;2023-07-28T03:47:01;98441.44;;;20.00;52.08
72428;BME280;60419;48.880;18.036;2023-07-28T03:49:46;98431.16;;;19.31;54.70
72428;BME280;60419;48.880;18.036;2023-07-28T03:52:32;98426.59;;;19.53;54.33
72428;BME280;60419;48.880;18.036;2023-07-28T03:55:17;98416.25;;;19.80;53.37
72428;BME280;60419;48.880;18.036;2023-07-28T03:58:03;98422.16;;;19.86;53.85
72428;BME280;60419;48.880;18.036;2023-07-28T04:00:48;98426.41;;;19.76;53.28
72428;BME280;60419;48.880;18.036;2023-07-28T04:03:33;98425.69;;;19.90;52.19
72428;BME280;60419;48.880;18.036;2023-07-28T04:06:19;98425.16;;;19.66;53.34
72428;BME280;60419;48.880;18.036;2023-07-28T04:09:04;98427.84;;;19.59;53.82
72428;BME280;60419;48.880;18.036;2023-07-28T04:11:49;98428.19;;;19.54;54.48
72428;BME280;60419;48.880;18.036;2023-07-28T04:14:35;98427.31;;;19.46;55.03
72428;BME280;60419;48.880;18.036;2023-07-28T04:17:21;98415.16;;;19.40;55.09
72428;BME280;60419;48.880;18.036;2023-07-28T04:20:07;98415.88;;;19.82;54.04
72428;BME280;60419;48.880;18.036;2023-07-28T04:22:52;98406.56;;;19.97;53.99
72428;BME280;60419;48.880;18.036;2023-07-28T04:25:38;98403.41;;;19.95;54.27
72428;BME280;60419;48.880;18.036;2023-07-28T04:28:23;98402.16;;;19.82;55.14
72428;BME280;60419;48.880;18.036;2023-07-28T04:31:10;98406.25;;;20.13;54.21
72428;BME280;60419;48.880;18.036;2023-07-28T04:33:55;98411.78;;;20.24;53.98
72428;BME280;60419;48.880;18.036;2023-07-28T04:36:41;98417.16;;;20.06;54.16
72428;BME280;60419;48.880;18.036;2023-07-28T04:39:26;98419.28;;;19.16;55.66
72428;BME280;60419;48.880;18.036;2023-07-28T04:42:11;98418.09;;;19.62;54.94
72428;BME280;60419;48.880;18.036;2023-07-28T04:44:57;98423.59;;;18.46;59.58
72428;BME280;60419;48.880;18.036;2023-07-28T04:47:42;98429.59;;;18.25;60.71
72428;BME280;60419;48.880;18.036;2023-07-28T04:50:28;98432.47;;;18.06;61.87
72428;BME280;60419;48.880;18.036;2023-07-28T04:53:14;98426.75;;;18.14;61.98
72428;BME280;60419;48.880;18.036;2023-07-28T04:56:00;98430.25;;;18.45;60.99
72428;BME280;60419;48.880;18.036;2023-07-28T04:58:45;98426.16;;;18.32;61.37
72428;BME280;60419;48.880;18.036;2023-07-28T05:01:33;98427.69;;;18.63;60.78
72428;BME280;60419;48.880;18.036;2023-07-28T05:04:18;98428.88;;;18.99;59.42
72428;BME280;60419;48.880;18.036;2023-07-28T05:07:04;98408.22;;;19.05;58.87
72428;BME280;60419;48.880;18.036;2023-07-28T05:09:50;98432.59;;;19.66;57.98
72428;BME280;60419;48.880;18.036;2023-07-28T05:12:35;98430.59;;;19.59;57.54
72428;BME280;60419;48.880;18.036;2023-07-28T05:15:21;98426.53;;;19.46;57.01
72428;BME280;60419;48.880;18.036;2023-07-28T05:18:08;98432.66;;;19.73;56.93
72428;BME280;60419;48.880;18.036;2023-07-28T05:20:53;98430.31;;;19.75;56.36
72428;BME280;60419;48.880;18.036;2023-07-28T05:23:39;98434.69;;;19.83;56.68
72428;BME280;60419;48.880;18.036;2023-07-28T05:26:24;98443.63;;;19.80;56.93
72428;BME280;60419;48.880;18.036;2023-07-28T05:29:10;98456.44;;;19.62;57.70
72428;BME280;60419;48.880;18.036;2023-07-28T05:31:57;98451.94;;;19.39;57.94
72428;BME280;60419;48.880;18.036;2023-07-28T05:34:43;98454.88;;;19.64;57.85
72428;BME280;60419;48.880;18.036;2023-07-28T05:37:29;98464.47;;;19.92;56.98
72428;BME280;60419;48.880;18.036;2023-07-28T05:40:14;98470.53;;;19.60;58.02
72428;BME280;60419;48.880;18.036;2023-07-28T05:43:00;98457.41;;;19.87;56.84
72428;BME280;60419;48.880;18.036;2023-07-28T05:45:48;98455.72;;;19.72;57.59
72428;BME280;60419;48.880;18.036;2023-07-28T05:48:33;98459.00;;;19.44;58.68
72428;BME280;60419;48.880;18.036;2023-07-28T05:51:19;98460.09;;;19.32;58.57
72428;BME280;60419;48.880;18.036;2023-07-28T05:54:04;98458.06;;;19.25;59.73
72428;BME280;60419;48.880;18.036;2023-07-28T05:56:49;98461.38;;;19.04;59.98
72428;BME280;60419;48.880;18.036;2023-07-28T05:59:35;98468.22;;;19.25;59.43
72428;BME280;60419;48.880;18.036;2023-07-28T06:02:20;98459.31;;;18.60;61.33
72428;BME280;60419;48.880;18.036;2023-07-28T06:05:06;98463.09;;;18.79;61.05
72428;BME280;60419;48.880;18.036;2023-07-28T06:07:52;98465.38;;;19.14;59.97
72428;BME280;60419;48.880;18.036;2023-07-28T06:10:37;98455.66;;;19.20;59.31
72428;BME280;60419;48.880;18.036;2023-07-28T06:13:23;98465.38;;;19.14;60.07
72428;BME280;60419;48.880;18.036;2023-07-28T06:16:08;98469.34;;;18.79;60.81
72428;BME280;60419;48.880;18.036;2023-07-28T06:18:54;98459.59;;;19.23;59.69
72428;BME280;60419;48.880;18.036;2023-07-28T06:21:39;98458.81;;;19.22;59.29
72428;BME280;60419;48.880;18.036;2023-07-28T06:24:24;98452.69;;;19.36;59.35
72428;BME280;60419;48.880;18.036;2023-07-28T06:27:10;98463.34;;;19.48;58.71
72428;BME280;60419;48.880;18.036;2023-07-28T06:29:55;98466.19;;;19.59;58.59
72428;BME280;60419;48.880;18.036;2023-07-28T06:32:41;98467.47;;;19.28;59.57
72428;BME280;60419;48.880;18.036;2023-07-28T06:35:26;98462.28;;;19.16;60.12
72428;BME280;60419;48.880;18.036;2023-07-28T06:38:13;98467.63;;;19.46;59.41
72428;BME280;60419;48.880;18.036;2023-07-28T06:40:58;98458.63;;;19.01;60.64
72428;BME280;60419;48.880;18.036;2023-07-28T06:43:43;98463.16;;;19.23;59.98
72428;BME280;60419;48.880;18.036;2023-07-28T06:46:29;98473.44;;;19.41;59.57
72428;BME280;60419;48.880;18.036;2023-07-28T06:49:15;98471.09;;;19.39;59.51
72428;BME280;60419;48.880;18.036;2023-07-28T06:52:01;98464.44;;;18.96;61.28
72428;BME280;60419;48.880;18.036;2023-07-28T06:54:47;98467.66;;;19.05;61.17
72428;BME280;60419;48.880;18.036;2023-07-28T06:57:34;98458.44;;;19.24;60.72
72428;BME280;60419;48.880;18.036;2023-07-28T07:00:20;98473.53;;;19.48;60.11
72428;BME280;60419;48.880;18.036;2023-07-28T07:03:05;98485.28;;;19.96;58.82
72428;BME280;60419;48.880;18.036;2023-07-28T07:05:51;98483.41;;;19.56;59.94
72428;BME280;60419;48.880;18.036;2023-07-28T07:08:36;98483.09;;;19.68;59.64
72428;BME280;60419;48.880;18.036;2023-07-28T07:11:21;98480.03;;;19.77;59.45
72428;BME280;60419;48.880;18.036;2023-07-28T07:14:07;98474.56;;;19.77;59.38
72428;BME280;60419;48.880;18.036;2023-07-28T07:16:52;98475.38;;;20.47;57.34
72428;BME280;60419;48.880;18.036;2023-07-28T07:19:39;98475.22;;;20.18;58.11
72428;BME280;60419;48.880;18.036;2023-07-28T07:22:24;98482.06;;;19.84;58.93
72428;BME280;60419;48.880;18.036;2023-07-28T07:25:09;98481.38;;;19.49;60.52
72428;BME280;60419;48.880;18.036;2023-07-28T07:27:55;98480.56;;;19.93;58.86
72428;BME280;60419;48.880;18.036;2023-07-28T07:30:40;98480.56;;;19.49;60.69
72428;BME280;60419;48.880;18.036;2023-07-28T07:33:26;98480.47;;;19.38;61.06
72428;BME280;60419;48.880;18.036;2023-07-28T07:36:16;98471.66;;;19.59;59.91
72428;BME280;60419;48.880;18.036;2023-07-28T07:39:02;98463.25;;;19.38;60.80
72428;BME280;60419;48.880;18.036;2023-07-28T07:41:50;98477.53;;;19.58;60.77
72428;BME280;60419;48.880;18.036;2023-07-28T07:44:35;98469.75;;;19.19;62.14
72428;BME280;60419;48.880;18.036;2023-07-28T07:47:20;98471.94;;;19.98;59.91
72428;BME280;60419;48.880;18.036;2023-07-28T07:50:07;98461.81;;;20.03;59.06
72428;BME280;60419;48.880;18.036;2023-07-28T07:52:54;98471.78;;;20.36;58.26
72428;BME280;60419;48.880;18.036;2023-07-28T07:55:39;98469.19;;;19.95;59.81
72428;BME280;60419;48.880;18.036;2023-07-28T07:58:24;98494.44;;;20.22;58.76
72428;BME280;60419;48.880;18.036;2023-07-28T08:01:10;98496.66;;;20.72;57.38
72428;BME280;60419;48.880;18.036;2023-07-28T08:03:55;98481.72;;;20.62;57.92
72428;BME280;60419;48.880;18.036;2023-07-28T08:06:41;98485.81;;;20.24;58.98
72428;BME280;60419;48.880;18.036;2023-07-28T08:09:27;98483.78;;;20.13;58.97
72428;BME280;60419;48.880;18.036;2023-07-28T08:12:13;98483.69;;;20.69;57.78
72428;BME280;60419;48.880;18.036;2023-07-28T08:14:59;98499.78;;;20.70;58.06
72428;BME280;60419;48.880;18.036;2023-07-28T08:17:45;98511.41;;;20.42;59.66
72428;BME280;60419;48.880;18.036;2023-07-28T08:20:30;98499.28;;;20.43;59.07
72428;BME280;60419;48.880;18.036;2023-07-28T08:23:16;98488.91;;;21.06;56.80
72428;BME280;60419;48.880;18.036;2023-07-28T08:26:01;98487.81;;;21.21;56.79
72428;BME280;60419;48.880;18.036;2023-07-28T08:28:46;98485.38;;;21.02;57.28
72428;BME280;60419;48.880;18.036;2023-07-28T08:31:32;98487.63;;;20.64;58.49
72428;BME280;60419;48.880;18.036;2023-07-28T08:34:17;98498.16;;;20.55;58.37
72428;BME280;60419;48.880;18.036;2023-07-28T08:37:03;98502.91;;;20.69;58.04
72428;BME280;60419;48.880;18.036;2023-07-28T08:39:48;98505.63;;;20.61;58.08
72428;BME280;60419;48.880;18.036;2023-07-28T08:42:38;98490.84;;;20.98;56.73
72428;BME280;60419;48.880;18.036;2023-07-28T08:45:24;98497.22;;;21.49;55.44
72428;BME280;60419;48.880;18.036;2023-07-28T08:48:09;98493.69;;;21.27;55.22
72428;BME280;60419;48.880;18.036;2023-07-28T08:50:54;98490.94;;;21.38;55.56
72428;BME280;60419;48.880;18.036;2023-07-28T08:53:40;98481.44;;;21.10;55.36
72428;BME280;60419;48.880;18.036;2023-07-28T08:56:25;98494.34;;;20.92;55.82
72428;BME280;60419;48.880;18.036;2023-07-28T08:59:22;98495.13;;;20.89;56.48
72428;BME280;60419;48.880;18.036;2023-07-28T09:02:09;98488.53;;;21.18;54.89
72428;BME280;60419;48.880;18.036;2023-07-28T09:04:55;98493.63;;;21.05;55.12
72428;BME280;60419;48.880;18.036;2023-07-28T09:07:42;98485.38;;;21.13;55.39
72428;BME280;60419;48.880;18.036;2023-07-28T09:10:47;98474.06;;;21.21;55.87
72428;BME280;60419;48.880;18.036;2023-07-28T09:13:38;98474.88;;;21.40;56.45
72428;BME280;60419;48.880;18.036;2023-07-28T09:16:23;98463.88;;;21.54;54.92
72428;BME280;60419;48.880;18.036;2023-07-28T09:19:10;98461.47;;;21.88;54.66
72428;BME280;60419;48.880;18.036;2023-07-28T09:21:59;98454.81;;;22.07;54.59
72428;BME280;60419;48.880;18.036;2023-07-28T09:24:46;98441.75;;;22.33;53.43
72428;BME280;60419;48.880;18.036;2023-07-28T09:27:33;98449.97;;;22.44;51.93
72428;BME280;60419;48.880;18.036;2023-07-28T09:30:18;98437.53;;;21.78;53.44
72428;BME280;60419;48.880;18.036;2023-07-28T09:33:04;98441.09;;;21.54;54.39
72428;BME280;60419;48.880;18.036;2023-07-28T09:35:50;98448.50;;;22.14;52.82
72428;BME280;60419;48.880;18.036;2023-07-28T09:38:40;98430.38;;;22.31;53.30
72428;BME280;60419;48.880;18.036;2023-07-28T09:41:29;98434.41;;;22.05;54.33
72428;BME280;60419;48.880;18.036;2023-07-28T09:44:15;98434.75;;;22.07;53.06
72428;BME280;60419;48.880;18.036;2023-07-28T09:47:01;98438.22;;;22.36;52.06
72428;BME280;60419;48.880;18.036;2023-07-28T09:49:48;98444.22;;;21.84;53.19
72428;BME280;60419;48.880;18.036;2023-07-28T09:52:42;98440.25;;;22.14;52.28
72428;BME280;60419;48.880;18.036;2023-07-28T09:55:28;98435.53;;;22.11;52.15
72428;BME280;60419;48.880;18.036;2023-07-28T09:58:16;98435.50;;;22.22;52.11
72428;BME280;60419;48.880;18.036;2023-07-28T10:01:02;98431.44;;;22.55;52.15
72428;BME280;60419;48.880;18.036;2023-07-28T10:03:51;98437.50;;;23.02;50.43
72428;BME280;60419;48.880;18.036;2023-07-28T10:06:37;98435.63;;;22.88;50.85
72428;BME280;60419;48.880;18.036;2023-07-28T10:09:27;98435.31;;;22.72;50.57
72428;BME280;60419;48.880;18.036;2023-07-28T10:12:24;98431.91;;;23.13;50.49
72428;BME280;60419;48.880;18.036;2023-07-28T10:15:17;98436.22;;;23.70;49.28
72428;BME280;60419;48.880;18.036;2023-07-28T10:18:06;98422.22;;;23.50;50.60
72428;BME280;60419;48.880;18.036;2023-07-28T10:20:52;98420.47;;;23.18;50.53
72428;BME280;60419;48.880;18.036;2023-07-28T10:23:37;98415.78;;;24.01;48.07
72428;BME280;60419;48.880;18.036;2023-07-28T10:26:35;98427.03;;;24.21;47.95
72428;BME280;60419;48.880;18.036;2023-07-28T10:29:21;98424.81;;;23.67;48.12
72428;BME280;60419;48.880;18.036;2023-07-28T10:32:06;98431.41;;;23.29;48.77
72428;BME280;60419;48.880;18.036;2023-07-28T10:35:05;98423.53;;;23.76;47.95
72428;BME280;60419;48.880;18.036;2023-07-28T10:37:53;98427.66;;;23.57;47.01
72428;BME280;60419;48.880;18.036;2023-07-28T10:40:41;98412.38;;;23.90;46.21
72428;BME280;60419;48.880;18.036;2023-07-28T10:43:27;98409.91;;;23.99;46.81
72428;BME280;60419;48.880;18.036;2023-07-28T10:46:17;98434.34;;;23.59;46.28
72428;BME280;60419;48.880;18.036;2023-07-28T10:49:06;98426.78;;;23.63;46.48
72428;BME280;60419;48.880;18.036;2023-07-28T10:51:53;98409.25;;;23.84;46.04
72428;BME280;60419;48.880;18.036;2023-07-28T10:54:38;98425.06;;;23.80;46.65
72428;BME280;60419;48.880;18.036;2023-07-28T10:57:24;98420.22;;;23.95;46.12
72428;BME280;60419;48.880;18.036;2023-07-28T11:00:13;98409.75;;;23.76;46.30
72428;BME280;60419;48.880;18.036;2023-07-28T11:02:59;98421.09;;;24.23;45.74
72428;BME280;60419;48.880;18.036;2023-07-28T11:05:45;98412.28;;;24.35;45.06
72428;BME280;60419;48.880;18.036;2023-07-28T11:08:31;98403.84;;;24.11;45.02
72428;BME280;60419;48.880;18.036;2023-07-28T11:11:17;98411.38;;;24.42;45.93
72428;BME280;60419;48.880;18.036;2023-07-28T11:14:05;98405.63;;;24.60;44.28
72428;BME280;60419;48.880;18.036;2023-07-28T11:16:51;98403.69;;;23.92;46.18
72428;BME280;60419;48.880;18.036;2023-07-28T11:19:36;98405.78;;;23.35;47.66
72428;BME280;60419;48.880;18.036;2023-07-28T11:22:21;98407.97;;;23.96;47.01
72428;BME280;60419;48.880;18.036;2023-07-28T11:25:08;98385.81;;;24.68;45.55
72428;BME280;60419;48.880;18.036;2023-07-28T11:27:54;98396.56;;;24.90;44.81
72428;BME280;60419;48.880;18.036;2023-07-28T11:30:40;98365.06;;;25.11;44.33
72428;BME280;60419;48.880;18.036;2023-07-28T11:33:27;98391.41;;;24.34;46.07
72428;BME280;60419;48.880;18.036;2023-07-28T11:36:22;98381.34;;;23.79;46.49
72428;BME280;60419;48.880;18.036;2023-07-28T11:39:08;98371.66;;;24.36;46.20
72428;BME280;60419;48.880;18.036;2023-07-28T11:41:55;98365.28;;;24.96;44.97
72428;BME280;60419;48.880;18.036;2023-07-28T11:44:41;98355.88;;;25.41;43.92
72428;BME280;60419;48.880;18.036;2023-07-28T11:47:26;98368.78;;;24.73;44.27
72428;BME280;60419;48.880;18.036;2023-07-28T11:50:22;98362.22;;;25.38;44.26
72428;BME280;60419;48.880;18.036;2023-07-28T11:53:09;98357.16;;;25.13;44.87
72428;BME280;60419;48.880;18.036;2023-07-28T11:55:54;98361.56;;;25.30;44.55
72428;BME280;60419;48.880;18.036;2023-07-28T11:58:40;98363.16;;;25.08;44.97
72428;BME280;60419;48.880;18.036;2023-07-28T12:01:25;98361.44;;;24.90;44.86
72428;BME280;60419;48.880;18.036;2023-07-28T12:04:20;98364.03;;;24.74;45.35
72428;BME280;60419;48.880;18.036;2023-07-28T12:07:11;98356.22;;;25.19;45.62
72428;BME280;60419;48.880;18.036;2023-07-28T12:10:02;98357.81;;;25.44;44.15
72428;BME280;60419;48.880;18.036;2023-07-28T12:12:47;98369.81;;;24.56;45.77
72428;BME280;60419;48.880;18.036;2023-07-28T12:15:40;98367.44;;;24.54;46.60
72428;BME280;60419;48.880;18.036;2023-07-28T12:18:30;98363.63;;;25.03;45.79
72428;BME280;60419;48.880;18.036;2023-07-28T12:21:16;98379.09;;;24.39;46.52
72428;BME280;60419;48.880;18.036;2023-07-28T12:24:02;98386.38;;;24.25;47.25
72428;BME280;60419;48.880;18.036;2023-07-28T12:26:48;98392.69;;;23.88;48.94
72428;BME280;60419;48.880;18.036;2023-07-28T12:29:35;98384.22;;;24.67;48.52
72428;BME280;60419;48.880;18.036;2023-07-28T12:32:20;98376.34;;;24.39;48.84
72428;BME280;60419;48.880;18.036;2023-07-28T12:35:06;98390.13;;;24.04;48.69
72428;BME280;60419;48.880;18.036;2023-07-28T12:37:52;98391.13;;;23.87;49.26
72428;BME280;60419;48.880;18.036;2023-07-28T12:40:37;98376.81;;;23.61;49.66
72428;BME280;60419;48.880;18.036;2023-07-28T12:43:23;98396.53;;;23.98;49.47
72428;BME280;60419;48.880;18.036;2023-07-28T12:46:10;98386.06;;;23.82;50.55
72428;BME280;60419;48.880;18.036;2023-07-28T12:48:56;98401.19;;;23.18;52.66
72428;BME280;60419;48.880;18.036;2023-07-28T12:51:41;98382.31;;;23.16;55.04
72428;BME280;60419;48.880;18.036;2023-07-28T12:54:27;98379.28;;;23.00;55.39
72428;BME280;60419;48.880;18.036;2023-07-28T12:57:12;98377.78;;;22.92;57.37
72428;BME280;60419;48.880;18.036;2023-07-28T12:59:57;98366.63;;;23.10;57.68
72428;BME280;60419;48.880;18.036;2023-07-28T13:02:44;98376.78;;;23.16;58.57
72428;BME280;60419;48.880;18.036;2023-07-28T13:05:30;98375.09;;;23.30;56.62
72428;BME280;60419;48.880;18.036;2023-07-28T13:08:15;98358.25;;;23.65;56.40
72428;BME280;60419;48.880;18.036;2023-07-28T13:11:01;98372.81;;;23.66;54.70
72428;BME280;60419;48.880;18.036;2023-07-28T13:13:46;98367.56;;;23.79;53.87
72428;BME280;60419;48.880;18.036;2023-07-28T13:16:32;98373.78;;;23.86;54.83
72428;BME280;60419;48.880;18.036;2023-07-28T13:19:18;98369.56;;;24.16;54.30
72428;BME280;60419;48.880;18.036;2023-07-28T13:22:04;98367.72;;;24.37;53.78
72428;BME280;60419;48.880;18.036;2023-07-28T13:24:49;98365.00;;;24.33;53.76
72428;BME280;60419;48.880;18.036;2023-07-28T13:27:35;98356.19;;;24.42;52.94
72428;BME280;60419;48.880;18.036;2023-07-28T13:30:20;98362.13;;;24.40;51.99
72428;BME280;60419;48.880;18.036;2023-07-28T13:33:06;98360.72;;;24.28;53.07
72428;BME280;60419;48.880;18.036;2023-07-28T13:35:51;98367.22;;;24.42;53.36
72428;BME280;60419;48.880;18.036;2023-07-28T13:38:37;98350.31;;;23.75;54.28
72428;BME280;60419;48.880;18.036;2023-07-28T13:41:22;98378.34;;;23.66;54.91
72428;BME280;60419;48.880;18.036;2023-07-28T13:44:08;98365.50;;;23.90;55.06
72428;BME280;60419;48.880;18.036;2023-07-28T13:46:53;98361.84;;;24.31;54.29
72428;BME280;60419;48.880;18.036;2023-07-28T13:49:38;98364.91;;;24.06;54.07
72428;BME280;60419;48.880;18.036;2023-07-28T13:52:24;98350.03;;;24.61;53.16
72428;BME280;60419;48.880;18.036;2023-07-28T13:55:09;98356.06;;;24.52;52.33
72428;BME280;60419;48.880;18.036;2023-07-28T13:57:55;98355.00;;;24.70;52.32
72428;BME280;60419;48.880;18.036;2023-07-28T14:00:40;98348.31;;;25.22;50.90
72428;BME280;60419;48.880;18.036;2023-07-28T14:03:25;98352.88;;;25.32;50.38
72428;BME280;60419;48.880;18.036;2023-07-28T14:06:11;98355.72;;;24.47;51.48
72428;BME280;60419;48.880;18.036;2023-07-28T14:08:56;98346.22;;;24.79;50.63
72428;BME280;60419;48.880;18.036;2023-07-28T14:11:41;98347.50;;;24.43;49.39
72428;BME280;60419;48.880;18.036;2023-07-28T14:14:27;98345.28;;;24.31;50.94
72428;BME280;60419;48.880;18.036;2023-07-28T14:17:12;98354.69;;;24.64;50.88
72428;BME280;60419;48.880;18.036;2023-07-28T14:19:57;98348.53;;;24.80;49.83
72428;BME280;60419;48.880;18.036;2023-07-28T14:22:43;98356.66;;;25.18;48.71
72428;BME280;60419;48.880;18.036;2023-07-28T14:25:28;98353.72;;;25.05;49.50
72428;BME280;60419;48.880;18.036;2023-07-28T14:28:14;98356.09;;;24.49;48.90